createdAt,value
2017-12-12T00:00:15.896Z,980.6
2017-12-12T00:01:17.647Z,980.7
2017-12-12T00:02:19.343Z,980.7
2017-12-12T00:03:21.060Z,980.8
2017-12-12T00:04:22.714Z,980.9
2017-12-12T00:05:24.362Z,980.9
2017-12-12T00:06:26.005Z,980.9
2017-12-12T00:07:27.650Z,981.0
2017-12-12T00:08:29.327Z,981.1
2017-12-12T00:09:31.013Z,981.1
2017-12-12T00:10:32.713Z,981.1
2017-12-12T00:11:34.461Z,981.2
2017-12-12T00:12:36.584Z,981.2
2017-12-12T00:13:38.209Z,981.2
2017-12-12T00:14:40.135Z,981.2
2017-12-12T00:15:41.792Z,981.3
2017-12-12T00:16:43.551Z,981.3
2017-12-12T00:17:45.233Z,981.3
2017-12-12T00:18:46.862Z,981.4
2017-12-12T00:19:48.776Z,981.5
2017-12-12T00:20:50.525Z,981.5
2017-12-12T00:21:52.263Z,981.6
2017-12-12T00:22:53.905Z,981.6
2017-12-12T00:23:55.529Z,981.7
2017-12-12T00:24:57.275Z,981.7
2017-12-12T00:25:58.936Z,981.8
2017-12-12T00:27:00.549Z,981.8
2017-12-12T00:28:02.179Z,981.8
2017-12-12T00:29:03.844Z,981.9
2017-12-12T00:30:05.543Z,981.9
2017-12-12T00:31:07.181Z,982.0
2017-12-12T00:32:08.900Z,981.9
2017-12-12T00:33:10.519Z,982.0
2017-12-12T00:34:12.238Z,982.0
2017-12-12T00:35:13.967Z,982.1
2017-12-12T00:43:23.883Z,982.3
2017-12-12T00:46:47.398Z,982.5
2017-12-12T00:47:49.006Z,982.7
2017-12-12T00:48:50.621Z,982.6
2017-12-12T00:49:52.228Z,982.7
2017-12-12T00:50:53.829Z,982.7
2017-12-12T00:51:55.440Z,982.8
2017-12-12T00:52:57.052Z,982.8
2017-12-12T00:53:58.665Z,982.8
2017-12-12T00:55:00.279Z,982.9
2017-12-12T00:56:01.891Z,982.8
2017-12-12T00:57:03.496Z,982.9
2017-12-12T00:58:05.108Z,982.9
2017-12-12T00:59:06.719Z,982.9
2017-12-12T01:00:08.330Z,983.0
2017-12-12T01:01:09.943Z,983.0
2017-12-12T01:02:11.552Z,983.0
2017-12-12T01:03:13.163Z,983.1
2017-12-12T01:04:14.773Z,983.1
2017-12-12T01:05:16.388Z,983.1
2017-12-12T01:06:17.998Z,983.2
2017-12-12T01:07:19.607Z,983.3
2017-12-12T01:08:21.217Z,983.3
2017-12-12T01:09:22.829Z,983.3
2017-12-12T01:10:24.441Z,983.4
2017-12-12T01:11:26.049Z,983.4
2017-12-12T01:12:27.660Z,983.5
2017-12-12T01:13:29.272Z,983.5
2017-12-12T01:14:30.884Z,983.6
2017-12-12T01:15:32.493Z,983.6
2017-12-12T01:16:34.105Z,983.7
2017-12-12T01:17:35.723Z,983.8
2017-12-12T01:18:37.324Z,983.8
2017-12-12T01:19:38.933Z,983.8
2017-12-12T01:20:40.542Z,983.8
2017-12-12T01:21:42.153Z,983.9
2017-12-12T01:22:43.769Z,983.9
2017-12-12T01:23:45.378Z,984.0
2017-12-12T01:24:46.984Z,984.0
2017-12-12T01:25:48.596Z,984.1
2017-12-12T01:26:50.208Z,984.1
2017-12-12T01:27:51.824Z,984.2
2017-12-12T01:28:53.432Z,984.2
2017-12-12T01:29:55.049Z,984.2
2017-12-12T01:30:56.656Z,984.3
2017-12-12T01:31:58.264Z,984.4
2017-12-12T01:32:59.877Z,984.4
2017-12-12T01:34:01.489Z,984.5
2017-12-12T01:35:03.097Z,984.5
2017-12-12T01:36:04.713Z,984.5
2017-12-12T01:37:06.323Z,984.6
2017-12-12T01:38:07.931Z,984.6
2017-12-12T01:39:09.545Z,984.6
2017-12-12T01:40:11.158Z,984.7
2017-12-12T01:41:12.769Z,984.7
2017-12-12T01:44:36.290Z,984.9
2017-12-12T01:45:37.898Z,984.9
2017-12-12T01:46:39.508Z,985.0
2017-12-12T01:47:41.115Z,985.0
2017-12-12T01:48:42.725Z,985.0
2017-12-12T01:49:44.333Z,985.0
2017-12-12T01:50:45.948Z,985.0
2017-12-12T01:51:47.570Z,985.1
2017-12-12T01:52:49.168Z,985.2
2017-12-12T01:53:50.777Z,985.2
2017-12-12T01:54:52.385Z,985.2
2017-12-12T01:55:53.997Z,985.3
2017-12-12T01:56:55.605Z,985.3
2017-12-12T01:57:57.219Z,985.4
2017-12-12T01:58:58.829Z,985.4
2017-12-12T02:00:00.453Z,985.5
2017-12-12T02:01:02.062Z,985.6
2017-12-12T02:02:03.675Z,985.6
2017-12-12T02:03:05.282Z,985.6
2017-12-12T02:04:06.896Z,985.7
2017-12-12T02:05:08.504Z,985.8
2017-12-12T02:06:10.113Z,985.8
2017-12-12T02:07:11.723Z,985.8
2017-12-12T02:08:13.333Z,985.8
2017-12-12T02:09:14.943Z,985.9
2017-12-12T02:10:16.555Z,985.9
2017-12-12T02:11:18.163Z,986.0
2017-12-12T02:12:19.774Z,986.0
2017-12-12T02:13:21.392Z,986.0
2017-12-12T02:14:22.997Z,986.1
2017-12-12T02:15:24.611Z,986.2
2017-12-12T02:16:26.213Z,986.2
2017-12-12T02:17:27.821Z,986.3
2017-12-12T02:18:29.432Z,986.3
2017-12-12T02:19:31.049Z,986.3
2017-12-12T02:20:32.661Z,986.4
2017-12-12T02:21:34.270Z,986.4
2017-12-12T02:22:35.879Z,986.4
2017-12-12T02:23:37.487Z,986.5
2017-12-12T02:24:39.096Z,986.5
2017-12-12T02:25:40.708Z,986.5
2017-12-12T02:26:42.320Z,986.5
2017-12-12T02:27:43.934Z,986.6
2017-12-12T02:28:45.540Z,986.6
2017-12-12T02:29:47.152Z,986.7
2017-12-12T02:30:48.759Z,986.7
2017-12-12T02:31:50.369Z,986.7
2017-12-12T02:32:51.980Z,986.8
2017-12-12T02:33:53.607Z,986.9
2017-12-12T02:34:55.224Z,987.0
2017-12-12T02:35:56.873Z,987.0
2017-12-12T02:36:58.933Z,987.1
2017-12-12T02:38:01.092Z,987.1
2017-12-12T02:39:02.716Z,987.1
2017-12-12T02:40:04.473Z,987.1
2017-12-12T02:41:06.111Z,987.1
2017-12-12T02:42:07.721Z,987.2
2017-12-12T02:43:09.363Z,987.2
2017-12-12T02:44:11.226Z,987.3
2017-12-12T02:45:13.237Z,987.3
2017-12-12T02:46:15.361Z,987.4
2017-12-12T02:47:17.033Z,987.5
2017-12-12T02:48:18.741Z,987.5
2017-12-12T02:49:20.528Z,987.6
2017-12-12T02:50:22.260Z,987.6
2017-12-12T02:51:23.990Z,987.7
2017-12-12T02:52:25.697Z,987.7
2017-12-12T02:53:27.379Z,987.7
2017-12-12T02:54:29.046Z,987.8
2017-12-12T02:55:30.829Z,987.9
2017-12-12T02:56:32.527Z,987.9
2017-12-12T02:57:34.183Z,987.9
2017-12-12T02:58:35.930Z,988.0
2017-12-12T02:59:37.639Z,988.0
2017-12-12T03:00:39.270Z,988.0
2017-12-12T03:01:40.911Z,988.0
2017-12-12T03:02:42.561Z,988.0
2017-12-12T03:03:44.204Z,988.1
2017-12-12T03:04:45.937Z,988.1
2017-12-12T03:05:47.625Z,988.2
2017-12-12T03:06:49.324Z,988.2
2017-12-12T03:07:50.966Z,988.3
2017-12-12T03:08:52.718Z,988.3
2017-12-12T03:09:54.355Z,988.3
2017-12-12T03:10:55.973Z,988.4
2017-12-12T03:11:57.678Z,988.4
2017-12-12T03:12:59.306Z,988.4
2017-12-12T03:14:01.036Z,988.5
2017-12-12T03:15:02.766Z,988.5
2017-12-12T03:16:04.460Z,988.5
2017-12-12T03:17:06.180Z,988.6
2017-12-12T03:18:07.803Z,988.6
2017-12-12T03:19:09.424Z,988.7
2017-12-12T03:20:11.036Z,988.7
2017-12-12T03:21:12.643Z,988.8
2017-12-12T03:22:14.310Z,988.8
2017-12-12T03:23:16.044Z,988.9
2017-12-12T03:24:17.740Z,988.9
2017-12-12T03:25:19.414Z,989.0
2017-12-12T03:26:21.042Z,989.0
2017-12-12T03:27:22.790Z,989.1
2017-12-12T03:28:24.405Z,989.0
2017-12-12T03:29:26.037Z,989.1
2017-12-12T03:30:27.782Z,989.2
2017-12-12T03:31:29.408Z,989.1
2017-12-12T03:32:31.047Z,989.2
2017-12-12T03:33:32.972Z,989.2
2017-12-12T03:34:34.600Z,989.3
2017-12-12T03:35:36.300Z,989.2
2017-12-12T03:36:37.940Z,989.3
2017-12-12T03:37:39.568Z,989.3
2017-12-12T03:38:41.289Z,989.3
2017-12-12T03:39:42.948Z,989.4
2017-12-12T03:40:44.603Z,989.4
2017-12-12T03:41:46.320Z,989.5
2017-12-12T03:42:48.035Z,989.5
2017-12-12T03:43:49.709Z,989.6
2017-12-12T03:44:51.358Z,989.6
2017-12-12T03:45:52.984Z,989.7
2017-12-12T03:46:54.659Z,989.7
2017-12-12T03:47:56.304Z,989.7
2017-12-12T03:48:57.934Z,989.8
2017-12-12T03:49:59.611Z,989.9
2017-12-12T03:51:01.238Z,989.9
2017-12-12T03:52:02.984Z,990.0
2017-12-12T03:53:04.665Z,990.1
2017-12-12T03:54:06.299Z,990.1
2017-12-12T03:55:07.920Z,990.1
2017-12-12T03:56:09.538Z,990.1
2017-12-12T03:57:11.165Z,990.2
2017-12-12T03:58:12.900Z,990.3
2017-12-12T03:59:14.577Z,990.3
2017-12-12T04:00:16.201Z,990.3
2017-12-12T04:01:17.901Z,990.4
2017-12-12T04:02:19.579Z,990.4
2017-12-12T04:03:21.276Z,990.4
2017-12-12T04:04:22.895Z,990.5
2017-12-12T04:05:24.557Z,990.5
2017-12-12T04:06:26.166Z,990.6
2017-12-12T04:07:27.788Z,990.6
2017-12-12T04:08:29.438Z,990.6
2017-12-12T04:09:31.051Z,990.7
2017-12-12T04:10:32.684Z,990.7
2017-12-12T04:11:34.301Z,990.7
2017-12-12T04:12:35.983Z,990.8
2017-12-12T04:13:37.723Z,990.8
2017-12-12T04:14:39.349Z,990.9
2017-12-12T04:15:40.973Z,990.9
2017-12-12T04:16:42.689Z,991.0
2017-12-12T04:17:44.403Z,991.0
2017-12-12T04:18:46.130Z,991.1
2017-12-12T04:19:47.756Z,991.1
2017-12-12T04:20:49.479Z,991.1
2017-12-12T04:21:51.182Z,991.2
2017-12-12T04:22:52.798Z,991.2
2017-12-12T04:23:54.492Z,991.2
2017-12-12T04:24:56.086Z,991.2
2017-12-12T04:25:57.713Z,991.2
2017-12-12T04:26:59.385Z,991.3
2017-12-12T04:28:01.019Z,991.3
2017-12-12T04:29:02.637Z,991.4
2017-12-12T04:30:04.352Z,991.4
2017-12-12T04:31:05.991Z,991.4
2017-12-12T04:32:07.625Z,991.5
2017-12-12T04:33:09.269Z,991.5
2017-12-12T04:34:11.027Z,991.6
2017-12-12T04:35:12.711Z,991.6
2017-12-12T04:36:14.400Z,991.7
2017-12-12T04:37:16.041Z,991.7
2017-12-12T04:38:17.767Z,991.7
2017-12-12T04:39:19.457Z,991.8
2017-12-12T04:40:21.141Z,991.8
2017-12-12T04:41:22.776Z,991.9
2017-12-12T04:42:24.443Z,991.9
2017-12-12T04:43:26.337Z,991.9
2017-12-12T04:44:28.300Z,992.0
2017-12-12T04:45:29.909Z,992.0
2017-12-12T04:46:31.638Z,992.0
2017-12-12T04:47:33.349Z,992.1
2017-12-12T04:48:35.027Z,992.1
2017-12-12T04:49:36.745Z,992.2
2017-12-12T04:50:38.414Z,992.2
2017-12-12T04:51:40.105Z,992.3
2017-12-12T04:52:41.755Z,992.3
2017-12-12T04:53:43.434Z,992.4
2017-12-12T04:54:45.195Z,992.4
2017-12-12T04:55:46.923Z,992.5
2017-12-12T04:56:48.564Z,992.5
2017-12-12T04:57:50.237Z,992.6
2017-12-12T04:58:51.942Z,992.7
2017-12-12T04:59:53.590Z,992.6
2017-12-12T05:00:55.245Z,992.7
2017-12-12T05:01:56.884Z,992.7
2017-12-12T05:02:58.595Z,992.8
2017-12-12T05:04:00.286Z,992.8
2017-12-12T05:05:01.996Z,992.9
2017-12-12T05:06:03.706Z,992.8
2017-12-12T05:07:05.400Z,992.9
2017-12-12T05:08:07.098Z,992.9
2017-12-12T05:09:08.827Z,992.9
2017-12-12T05:10:10.533Z,993.0
2017-12-12T05:11:12.223Z,993.0
2017-12-12T05:12:13.910Z,993.0
2017-12-12T05:13:15.622Z,993.0
2017-12-12T05:14:17.309Z,993.1
2017-12-12T05:15:18.979Z,993.1
2017-12-12T05:16:20.648Z,993.2
2017-12-12T05:17:22.329Z,993.2
2017-12-12T05:18:24.091Z,993.3
2017-12-12T05:19:25.806Z,993.3
2017-12-12T05:20:27.506Z,993.3
2017-12-12T05:21:29.179Z,993.4
2017-12-12T05:22:30.957Z,993.5
2017-12-12T05:23:32.663Z,993.4
2017-12-12T05:24:34.381Z,993.5
2017-12-12T05:25:36.196Z,993.5
2017-12-12T05:26:38.412Z,993.5
2017-12-12T05:27:40.082Z,993.6
2017-12-12T05:28:42.028Z,993.6
2017-12-12T05:29:43.662Z,993.7
2017-12-12T05:30:45.399Z,993.7
2017-12-12T05:31:47.046Z,993.7
2017-12-12T05:32:48.749Z,993.7
2017-12-12T05:33:50.408Z,993.7
2017-12-12T05:34:52.085Z,993.7
2017-12-12T05:35:53.756Z,993.8
2017-12-12T05:36:55.426Z,993.8
2017-12-12T05:37:57.108Z,993.8
2017-12-12T05:38:59.467Z,993.8
2017-12-12T05:40:01.075Z,993.9
2017-12-12T05:41:02.686Z,993.9
2017-12-12T05:42:04.298Z,993.9
2017-12-12T05:43:07.419Z,993.9
2017-12-12T05:44:09.085Z,993.9
2017-12-12T05:45:10.695Z,994.0
2017-12-12T05:46:12.306Z,994.0
2017-12-12T05:47:13.919Z,994.1
2017-12-12T05:48:15.529Z,994.1
2017-12-12T05:49:17.140Z,994.1
2017-12-12T05:50:18.751Z,994.2
2017-12-12T05:51:20.364Z,994.3
2017-12-12T05:52:21.969Z,994.3
2017-12-12T05:53:23.578Z,994.3
2017-12-12T05:54:25.187Z,994.4
2017-12-12T05:55:26.799Z,994.4
2017-12-12T05:56:28.409Z,994.4
2017-12-12T05:57:30.019Z,994.4
2017-12-12T05:58:31.626Z,994.5
2017-12-12T05:59:33.234Z,994.5
2017-12-12T06:00:34.845Z,994.6
2017-12-12T06:01:36.455Z,994.6
2017-12-12T06:02:38.067Z,994.6
2017-12-12T06:03:39.677Z,994.6
2017-12-12T06:04:41.286Z,994.7
2017-12-12T06:05:42.894Z,994.7
2017-12-12T06:06:44.500Z,994.7
2017-12-12T06:07:46.110Z,994.8
2017-12-12T06:08:47.719Z,994.8
2017-12-12T06:09:49.331Z,994.8
2017-12-12T06:10:50.941Z,994.8
2017-12-12T06:11:52.550Z,994.8
2017-12-12T06:12:54.159Z,994.9
2017-12-12T06:13:55.765Z,994.9
2017-12-12T06:14:57.374Z,994.9
2017-12-12T06:15:59.074Z,995.0
2017-12-12T06:17:00.685Z,995.0
2017-12-12T06:18:02.296Z,995.1
2017-12-12T06:19:03.904Z,995.1
2017-12-12T06:20:05.510Z,995.2
2017-12-12T06:21:07.124Z,995.2
2017-12-12T06:22:08.735Z,995.2
2017-12-12T06:23:10.345Z,995.2
2017-12-12T06:24:11.955Z,995.3
2017-12-12T06:25:13.567Z,995.3
2017-12-12T06:26:15.175Z,995.3
2017-12-12T06:27:16.789Z,995.4
2017-12-12T06:28:18.397Z,995.4
2017-12-12T06:29:20.004Z,995.5
2017-12-12T06:30:21.615Z,995.4
2017-12-12T06:31:23.226Z,995.5
2017-12-12T06:32:24.834Z,995.5
2017-12-12T06:33:26.445Z,995.6
2017-12-12T06:34:28.079Z,995.6
2017-12-12T06:35:29.666Z,995.7
2017-12-12T06:36:31.274Z,995.7
2017-12-12T06:37:32.883Z,995.7
2017-12-12T06:38:34.492Z,995.8
2017-12-12T06:39:36.105Z,995.9
2017-12-12T06:40:37.714Z,995.8
2017-12-12T06:41:39.322Z,995.9
2017-12-12T06:42:40.929Z,995.9
2017-12-12T06:43:42.539Z,995.9
2017-12-12T06:44:44.163Z,995.9
2017-12-12T06:45:45.774Z,995.9
2017-12-12T06:46:47.393Z,996.0
2017-12-12T06:47:49.003Z,996.0
2017-12-12T06:48:50.610Z,996.0
2017-12-12T06:49:52.223Z,996.0
2017-12-12T06:50:53.832Z,996.1
2017-12-12T06:51:55.443Z,996.1
2017-12-12T06:52:57.050Z,996.1
2017-12-12T06:53:58.663Z,996.1
2017-12-12T06:55:00.273Z,996.1
2017-12-12T06:56:01.881Z,996.1
2017-12-12T06:57:03.490Z,996.1
2017-12-12T06:58:05.103Z,996.2
2017-12-12T06:59:06.705Z,996.2
2017-12-12T07:00:08.314Z,996.2
2017-12-12T07:01:09.928Z,996.2
2017-12-12T07:02:11.535Z,996.2
2017-12-12T07:03:13.143Z,996.2
2017-12-12T07:04:14.750Z,996.3
2017-12-12T07:05:16.360Z,996.3
2017-12-12T07:06:17.970Z,996.4
2017-12-12T07:07:19.582Z,996.5
2017-12-12T07:08:21.195Z,996.5
2017-12-12T07:09:22.802Z,996.5
2017-12-12T07:10:24.411Z,996.5
2017-12-12T07:11:26.017Z,996.5
2017-12-12T07:12:27.630Z,996.6
2017-12-12T07:13:29.243Z,996.6
2017-12-12T07:14:30.855Z,996.7
2017-12-12T07:15:32.463Z,996.7
2017-12-12T07:16:34.073Z,996.7
2017-12-12T07:17:35.683Z,996.7
2017-12-12T07:18:37.293Z,996.8
2017-12-12T07:19:38.907Z,996.8
2017-12-12T07:20:40.515Z,996.8
2017-12-12T07:21:42.130Z,996.8
2017-12-12T07:22:43.742Z,996.9
2017-12-12T07:23:45.352Z,996.9
2017-12-12T07:24:46.963Z,996.9
2017-12-12T07:25:48.571Z,997.0
2017-12-12T07:26:50.181Z,997.0
2017-12-12T07:27:51.791Z,997.0
2017-12-12T07:28:53.404Z,997.1
2017-12-12T07:29:55.019Z,997.1
2017-12-12T07:30:56.632Z,997.2
2017-12-12T07:31:58.236Z,997.2
2017-12-12T07:32:59.844Z,997.2
2017-12-12T07:34:01.460Z,997.2
2017-12-12T07:35:03.068Z,997.3
2017-12-12T07:36:04.682Z,997.2
2017-12-12T07:37:06.294Z,997.2
2017-12-12T07:38:07.901Z,997.3
2017-12-12T07:39:10.382Z,997.3
2017-12-12T07:40:11.994Z,997.4
2017-12-12T07:41:13.603Z,997.4
2017-12-12T07:42:15.214Z,997.5
2017-12-12T07:43:16.825Z,997.5
2017-12-12T07:44:18.439Z,997.5
2017-12-12T07:45:20.052Z,997.5
2017-12-12T07:46:21.658Z,997.5
2017-12-12T07:47:23.268Z,997.5
2017-12-12T07:48:24.880Z,997.5
2017-12-12T07:49:26.492Z,997.6
2017-12-12T07:50:28.116Z,997.6
2017-12-12T07:51:29.718Z,997.6
2017-12-12T07:52:31.327Z,997.7
2017-12-12T07:53:32.939Z,997.7
2017-12-12T07:54:34.552Z,997.7
2017-12-12T07:55:36.165Z,997.8
2017-12-12T07:56:38.089Z,997.7
2017-12-12T07:57:39.698Z,997.8
2017-12-12T07:58:41.312Z,997.8
2017-12-12T07:59:42.931Z,997.9
2017-12-12T08:00:44.545Z,997.9
2017-12-12T08:01:46.159Z,998.0
2017-12-12T08:02:47.771Z,998.0
2017-12-12T08:03:49.382Z,998.0
2017-12-12T08:04:50.999Z,998.1
2017-12-12T08:05:52.613Z,998.1
2017-12-12T08:06:54.221Z,998.1
2017-12-12T08:07:55.834Z,998.2
2017-12-12T08:08:57.461Z,998.2
2017-12-12T08:09:59.060Z,998.3
2017-12-12T08:11:00.675Z,998.3
2017-12-12T08:12:02.287Z,998.3
2017-12-12T08:13:03.902Z,998.4
2017-12-12T08:14:05.516Z,998.4
2017-12-12T08:15:07.131Z,998.4
2017-12-12T08:16:08.743Z,998.5
2017-12-12T08:17:10.356Z,998.5
2017-12-12T08:18:11.969Z,998.4
2017-12-12T08:19:13.583Z,998.5
2017-12-12T08:20:15.195Z,998.5
2017-12-12T08:21:16.807Z,998.5
2017-12-12T08:22:18.420Z,998.6
2017-12-12T08:23:20.031Z,998.6
2017-12-12T08:24:21.653Z,998.7
2017-12-12T08:25:23.255Z,998.7
2017-12-12T08:26:24.870Z,998.8
2017-12-12T08:27:26.487Z,998.7
2017-12-12T08:28:28.091Z,998.8
2017-12-12T08:29:29.704Z,998.8
2017-12-12T08:30:31.316Z,998.8
2017-12-12T08:31:32.928Z,998.9
2017-12-12T08:32:34.542Z,998.9
2017-12-12T08:33:36.162Z,998.9
2017-12-12T08:34:37.767Z,999.0
2017-12-12T08:35:39.380Z,999.0
2017-12-12T08:36:40.990Z,999.0
2017-12-12T08:37:42.602Z,999.0
2017-12-12T08:38:44.215Z,999.0
2017-12-12T08:39:45.825Z,999.0
2017-12-12T08:40:47.439Z,999.1
2017-12-12T08:41:49.067Z,999.2
2017-12-12T08:42:50.664Z,999.1
2017-12-12T08:43:52.276Z,999.1
2017-12-12T08:44:53.889Z,999.0
2017-12-12T08:45:55.502Z,999.1
2017-12-12T08:46:57.134Z,999.0
2017-12-12T08:47:58.747Z,999.0
2017-12-12T08:49:00.361Z,999.1
2017-12-12T08:50:01.972Z,999.1
2017-12-12T08:51:03.586Z,999.1
2017-12-12T08:52:05.196Z,999.2
2017-12-12T08:53:06.808Z,999.2
2017-12-12T08:54:08.422Z,999.3
2017-12-12T08:55:10.040Z,999.3
2017-12-12T08:56:11.650Z,999.3
2017-12-12T08:57:13.262Z,999.3
2017-12-12T08:58:14.873Z,999.4
2017-12-12T08:59:16.485Z,999.4
2017-12-12T09:00:18.100Z,999.4
2017-12-12T09:01:19.737Z,999.5
2017-12-12T09:02:21.326Z,999.5
2017-12-12T09:03:22.941Z,999.6
2017-12-12T09:04:24.553Z,999.6
2017-12-12T09:05:26.169Z,999.7
2017-12-12T09:06:27.779Z,999.6
2017-12-12T09:07:29.391Z,999.6
2017-12-12T09:08:31.010Z,999.6
2017-12-12T09:09:32.623Z,999.7
2017-12-12T09:10:34.238Z,999.7
2017-12-12T09:11:35.853Z,999.7
2017-12-12T09:12:37.466Z,999.7
2017-12-12T09:13:39.076Z,999.7
2017-12-12T09:14:40.688Z,999.7
2017-12-12T09:15:42.302Z,999.7
2017-12-12T09:16:43.915Z,999.8
2017-12-12T09:17:45.531Z,999.9
2017-12-12T09:18:47.149Z,999.9
2017-12-12T09:19:48.765Z,999.9
2017-12-12T09:20:50.380Z,1000.0
2017-12-12T09:21:51.992Z,1000.0
2017-12-12T09:22:53.608Z,1000.0
2017-12-12T09:23:55.222Z,1000.1
2017-12-12T09:24:56.837Z,1000.1
2017-12-12T09:25:58.449Z,1000.1
2017-12-12T09:27:00.060Z,1000.1
2017-12-12T09:28:01.675Z,1000.2
2017-12-12T09:29:03.297Z,1000.2
2017-12-12T09:30:04.909Z,1000.2
2017-12-12T09:31:06.525Z,1000.3
2017-12-12T09:32:08.139Z,1000.3
2017-12-12T09:33:09.751Z,1000.3
2017-12-12T09:34:11.365Z,1000.3
2017-12-12T09:35:12.980Z,1000.4
2017-12-12T09:36:14.595Z,1000.4
2017-12-12T09:37:16.207Z,1000.4
2017-12-12T09:38:17.825Z,1000.5
2017-12-12T09:39:19.441Z,1000.6
2017-12-12T09:40:21.055Z,1000.6
2017-12-12T09:41:22.669Z,1000.6
2017-12-12T09:42:24.314Z,1000.7
2017-12-12T09:43:25.895Z,1000.6
2017-12-12T09:44:27.505Z,1000.7
2017-12-12T09:45:29.124Z,1000.7
2017-12-12T09:46:30.739Z,1000.7
2017-12-12T09:47:32.351Z,1000.7
2017-12-12T09:48:33.962Z,1000.7
2017-12-12T09:49:35.578Z,1000.7
2017-12-12T09:50:37.191Z,1000.8
2017-12-12T09:51:38.805Z,1000.7
2017-12-12T09:52:40.420Z,1000.8
2017-12-12T09:53:42.035Z,1000.8
2017-12-12T09:54:43.649Z,1000.8
2017-12-12T09:55:45.262Z,1000.8
2017-12-12T09:56:46.874Z,1000.9
2017-12-12T09:57:48.492Z,1001.0
2017-12-12T09:58:50.106Z,1001.0
2017-12-12T09:59:51.721Z,1001.0
2017-12-12T10:00:53.339Z,1001.0
2017-12-12T10:01:54.951Z,1001.0
2017-12-12T10:02:56.566Z,1001.1
2017-12-12T10:03:58.177Z,1001.1
2017-12-12T10:04:59.792Z,1001.2
2017-12-12T10:06:01.407Z,1001.1
2017-12-12T10:07:03.020Z,1001.2
2017-12-12T10:08:04.636Z,1001.2
2017-12-12T10:09:06.249Z,1001.2
2017-12-12T10:10:07.860Z,1001.3
2017-12-12T10:11:09.474Z,1001.3
2017-12-12T10:12:11.087Z,1001.3
2017-12-12T10:13:12.702Z,1001.3
2017-12-12T10:14:14.317Z,1001.3
2017-12-12T10:15:15.929Z,1001.3
2017-12-12T10:16:17.541Z,1001.3
2017-12-12T10:17:19.155Z,1001.3
2017-12-12T10:18:20.772Z,1001.4
2017-12-12T10:19:22.381Z,1001.4
2017-12-12T10:20:23.994Z,1001.4
2017-12-12T10:21:25.612Z,1001.3
2017-12-12T10:22:27.228Z,1001.4
2017-12-12T10:23:28.842Z,1001.4
2017-12-12T10:24:30.451Z,1001.4
2017-12-12T10:25:32.066Z,1001.4
2017-12-12T10:26:33.679Z,1001.5
2017-12-12T10:27:35.293Z,1001.5
2017-12-12T10:28:36.908Z,1001.5
2017-12-12T10:29:38.521Z,1001.5
2017-12-12T10:30:40.133Z,1001.6
2017-12-12T10:31:41.745Z,1001.6
2017-12-12T10:32:43.357Z,1001.5
2017-12-12T10:33:44.982Z,1001.6
2017-12-12T10:34:46.592Z,1001.6
2017-12-12T10:35:48.210Z,1001.5
2017-12-12T10:36:49.825Z,1001.6
2017-12-12T10:37:51.438Z,1001.6
2017-12-12T10:38:53.052Z,1001.6
2017-12-12T10:39:54.663Z,1001.6
2017-12-12T10:40:56.277Z,1001.7
2017-12-12T10:41:57.901Z,1001.6
2017-12-12T10:42:59.513Z,1001.6
2017-12-12T10:44:01.130Z,1001.7
2017-12-12T10:45:02.743Z,1001.7
2017-12-12T10:46:04.357Z,1001.7
2017-12-12T10:47:05.972Z,1001.7
2017-12-12T10:48:07.588Z,1001.7
2017-12-12T10:49:09.203Z,1001.8
2017-12-12T10:50:10.821Z,1001.8
2017-12-12T10:51:12.436Z,1001.8
2017-12-12T10:52:14.050Z,1001.7
2017-12-12T10:53:15.664Z,1001.8
2017-12-12T10:54:17.281Z,1001.8
2017-12-12T10:55:18.898Z,1001.9
2017-12-12T10:56:20.513Z,1002.0
2017-12-12T10:57:22.128Z,1002.0
2017-12-12T10:58:23.747Z,1002.0
2017-12-12T10:59:25.362Z,1002.0
2017-12-12T11:00:26.977Z,1002.1
2017-12-12T11:01:28.596Z,1002.1
2017-12-12T11:02:30.212Z,1001.9
2017-12-12T11:03:31.827Z,1002.0
2017-12-12T11:04:33.442Z,1002.0
2017-12-12T11:05:35.061Z,1002.0
2017-12-12T11:06:36.675Z,1001.9
2017-12-12T11:07:38.290Z,1002.0
2017-12-12T11:08:39.904Z,1002.0
2017-12-12T11:09:41.520Z,1002.0
2017-12-12T11:10:43.140Z,1002.0
2017-12-12T11:11:44.752Z,1002.0
2017-12-12T11:12:46.376Z,1002.1
2017-12-12T11:13:47.984Z,1001.9
2017-12-12T11:14:49.599Z,1002.0
2017-12-12T11:15:51.213Z,1002.1
2017-12-12T11:16:52.830Z,1002.1
2017-12-12T11:17:54.447Z,1002.1
2017-12-12T11:18:56.063Z,1002.0
2017-12-12T11:19:57.678Z,1002.1
2017-12-12T11:20:59.301Z,1002.1
2017-12-12T11:22:00.917Z,1002.1
2017-12-12T11:23:02.530Z,1002.2
2017-12-12T11:24:04.141Z,1002.1
2017-12-12T11:25:05.760Z,1002.1
2017-12-12T11:26:07.375Z,1002.2
2017-12-12T11:27:08.991Z,1002.1
2017-12-12T11:28:10.606Z,1002.1
2017-12-12T11:29:12.219Z,1002.2
2017-12-12T11:30:13.827Z,1002.4
2017-12-12T11:31:15.454Z,1002.5
2017-12-12T11:32:17.067Z,1002.4
2017-12-12T11:33:18.683Z,1002.3
2017-12-12T11:34:20.299Z,1002.3
2017-12-12T11:35:21.913Z,1002.2
2017-12-12T11:36:23.527Z,1002.2
2017-12-12T11:37:25.143Z,1002.3
2017-12-12T11:38:26.759Z,1002.3
2017-12-12T11:39:28.380Z,1002.3
2017-12-12T11:40:29.995Z,1002.3
2017-12-12T11:41:31.615Z,1002.3
2017-12-12T11:42:33.229Z,1002.4
2017-12-12T11:43:34.848Z,1002.4
2017-12-12T11:44:36.460Z,1002.4
2017-12-12T11:45:38.080Z,1002.3
2017-12-12T11:46:39.697Z,1002.3
2017-12-12T11:47:41.316Z,1002.4
2017-12-12T11:48:42.927Z,1002.4
2017-12-12T11:49:44.551Z,1002.5
2017-12-12T11:50:46.156Z,1002.4
2017-12-12T11:51:47.769Z,1002.5
2017-12-12T11:52:49.388Z,1002.5
2017-12-12T11:53:51.003Z,1002.5
2017-12-12T11:54:52.619Z,1002.5
2017-12-12T11:55:54.326Z,1002.5
2017-12-12T11:56:55.935Z,1002.6
2017-12-12T11:57:57.552Z,1002.6
2017-12-12T11:58:59.165Z,1002.6
2017-12-12T12:00:00.785Z,1002.6
2017-12-12T12:01:02.407Z,1002.6
2017-12-12T12:02:04.023Z,1002.6
2017-12-12T12:03:05.641Z,1002.6
2017-12-12T12:04:07.255Z,1002.6
2017-12-12T12:05:08.871Z,1002.6
2017-12-12T12:06:10.488Z,1002.6
2017-12-12T12:07:12.157Z,1002.7
2017-12-12T12:08:13.770Z,1002.7
2017-12-12T12:09:15.394Z,1002.7
2017-12-12T12:10:17.011Z,1002.7
2017-12-12T12:11:18.627Z,1002.8
2017-12-12T12:12:20.264Z,1002.8
2017-12-12T12:13:21.905Z,1002.8
2017-12-12T12:14:26.012Z,1002.8
2017-12-12T12:15:27.629Z,1003.0
2017-12-12T12:16:29.247Z,1003.0
2017-12-12T12:17:31.002Z,1003.1
2017-12-12T12:18:32.737Z,1003.0
2017-12-12T12:19:34.377Z,1003.3
2017-12-12T12:20:36.041Z,1003.0
2017-12-12T12:21:37.657Z,1003.3
2017-12-12T12:22:39.279Z,1003.0
2017-12-12T12:23:41.750Z,1002.9
2017-12-12T12:24:43.503Z,1002.9
2017-12-12T12:25:45.124Z,1003.4
2017-12-12T12:26:46.980Z,1003.2
2017-12-12T12:27:48.538Z,1003.1
2017-12-12T12:28:50.191Z,1003.2
2017-12-12T12:29:51.819Z,1003.1
2017-12-12T12:30:55.902Z,1003.4
2017-12-12T12:31:57.531Z,1003.7
2017-12-12T12:33:02.327Z,1003.5
2017-12-12T12:34:04.552Z,1003.7
2017-12-12T12:35:06.325Z,1003.5
2017-12-12T12:36:07.972Z,1003.3
2017-12-12T12:37:09.612Z,1003.4
2017-12-12T12:38:11.248Z,1003.4
2017-12-12T12:39:12.927Z,1003.3
2017-12-12T12:40:16.312Z,1003.3
2017-12-12T12:41:17.937Z,1003.3
2017-12-12T12:42:20.527Z,1003.2
2017-12-12T12:43:22.156Z,1003.3
2017-12-12T12:44:25.617Z,1003.2
2017-12-12T12:45:28.143Z,1003.2
2017-12-12T12:46:29.765Z,1003.2
2017-12-12T12:47:31.383Z,1003.2
2017-12-12T12:48:33.007Z,1003.3
2017-12-12T12:49:35.528Z,1003.3
2017-12-12T12:50:37.149Z,1003.3
2017-12-12T12:51:38.770Z,1003.3
2017-12-12T12:52:41.253Z,1003.3
2017-12-12T12:53:43.831Z,1003.3
2017-12-12T12:54:47.198Z,1003.3
2017-12-12T12:55:48.815Z,1003.4
2017-12-12T12:56:51.254Z,1003.4
2017-12-12T12:57:55.573Z,1003.4
2017-12-12T12:58:57.211Z,1003.4
2017-12-12T12:59:58.831Z,1003.4
2017-12-12T13:01:00.449Z,1003.5
2017-12-12T13:02:02.069Z,1003.5
2017-12-12T13:03:10.037Z,1003.4
2017-12-12T13:04:16.115Z,1003.5
2017-12-12T13:05:17.739Z,1003.6
2017-12-12T13:06:19.357Z,1003.6
2017-12-12T13:07:20.977Z,1003.6
2017-12-12T13:08:22.592Z,1003.6
2017-12-12T13:09:24.223Z,1003.6
2017-12-12T13:10:25.835Z,1003.6
2017-12-12T13:11:27.464Z,1003.5
2017-12-12T13:12:30.046Z,1003.6
2017-12-12T13:13:32.727Z,1003.6
2017-12-12T13:14:34.348Z,1003.6
2017-12-12T13:15:35.966Z,1003.6
2017-12-12T13:16:37.588Z,1003.6
2017-12-12T13:17:39.201Z,1003.6
2017-12-12T13:18:40.815Z,1003.6